Airfield :
LOGIN :

Register | Disclaimer

   EN    FR    IT 

 










Legend :    VFR   Marginal VFR   IFR   Intensive IFR   Very Intensive IFR
Visi :
Ceiling :
>= 8 km
>= 3000ft
5 to 8 km
1000 to 3000 ft
1500m to 5 km
500 to 1000 ft
800 to 1500m
200 to 500 ft
< 800m
< 200 ft
Symbols :   Thunderstorms  Fog  Heavy snow  Heavy precipitations  Wind > 20 kt
SIGMETs :     Misc.  Thunderstorms  Icing  Turbulence  Mountain Waves  Volcanic Ashes







- Airport Elevation : 325 ft
- IATA code : BES
- Download approach charts


LFRB - Brest

CURRENT METAR :
  • 201630Z AUTO 29017KT 260V320 4700 -DZ BR OVC006 12/11 Q1010 TEMPO 2000 RA OVC003 BECMG 27022G40KT

EXPIRED METARs :
  • 201600Z AUTO 29020G31KT 4600 -RA BR OVC006 12/11 Q1009 TEMPO 2000 RA OVC003
  • 201530Z AUTO 28021G35KT 9999 OVC006 12/11 Q1009 TEMPO 2000 RA OVC003
  • 201500Z AUTO 28019G36KT 9000 BKN005 OVC009 12/11 Q1008 TEMPO 2000 RA
  • 201430Z AUTO 28022G35KT 250V310 4500 -RADZ BR OVC005 12/11 Q1008 TEMPO 2000 RA
  • 201400Z AUTO 28020G32KT 250V320 5000 -DZ BR OVC005 12/11 Q1008 TEMPO 2000 RA

TAF TAF LFRB
Valid from the 20 at 12:00 until the 21 at 18:00 UTC


201100Z 2012/2118 27022G40KT 6000 OVC009
TEMPO 2012/2118 2000 RA OVC003
BECMG 2019/2022 27014KT
TEMPO 2103/2118 27017G27KT
ATIS : +33 2 98 32 02 71
No reported NOTAMs for that airfield.
1 SIGMET reported for the Brest FIR (LFRR) :
 
Severe turbulence
LFRR SIGMET 4 VALID 201600/202000 LFPW
LFRR BREST FIR/UIR SEV TURB FCST WI N4930 W00515 - N5000 W00200 - N5000 W00015 - N4800 W00015 - N4800 W00315 - N4715 W00015 - N4630 W00015 - N4630 W00130 - N4545 W00145 - N4730 W00515 - N4930 W00515 SFC/FL060 STNR WKN=



MET'MAP, your aeronautical weather chart ! - Copyright ORBIFLY December 2007 - Disclaimer

ORBIFLY MET'MAP TEAM :

Programming & Development : Alexandra Zaïnal
Concept & Development : Baudouin d'Aumeries
Co-Development & Prog : Marc-Olivier Méhu
Technical & hardware support : Manuel Goepfert

Contact : metmap@orbifly.com




SOURCES & CREDITS :

   NOAA